KHOT/HOT METAR and TAF weather

Enter ICAO airport designator
Station Type Date Time Source
KHOT METAR 2020/03/31 09:53 UTC NOAA

KHOT 310953Z AUTO 07008KT 7SM OVC008 11/09 A2985 RMK AO2 CIG 006V011 SLP107 T01060089


Station Type Date Time Source
KHOT Decoded METAR 2020/03/31 09:53 UTC NOAA

HOT SPRINGS MEMORIAL FIELD, AR, United States (KHOT) 34-29N 093-06W 162M
Mar 31, 2020 - 05:53 AM EDT / 2020.03.31 0953 UTC
Wind: from the ENE (070 degrees) at 9 MPH (8 KT):0
Visibility: 7 mile(s):0
Sky conditions: overcast
Temperature: 51.1 F (10.6 C)
Dew Point: 48.0 F (8.9 C)
Relative Humidity: 89%
Pressure (altimeter): 29.85 in. Hg (1010 hPa)
ob: KHOT 310953Z AUTO 07008KT 7SM OVC008 11/09 A2985 RMK AO2 CIG 006V011 SLP107 T01060089
cycle: 10

Station Type Date Time Source
KHOT TAF 2020/03/31 06:48 UTC NOAA

TAF KHOT 310540Z 3106/0106 09008KT P6SM -RA SCT015 BKN030
TEMPO 3106/3108 4SM -RA BR OVC015
FM310800 07006KT 6SM -RA SCT007 OVC015
TEMPO 3108/3112 5SM -RA BR OVC007
FM311400 03009KT 6SM BR OVC025
FM311800 01007KT P6SM BKN050
FM010000 VRB02KT P6SM SKC

Example: see airport list